Time;durP1;ratioP1;P1;durP2;ratioP2;P2;SDS_P1;SDS_P2;PMS_P1;PMS_P2;Temp;Humidity;BMP_temperature;BMP_pressure;BME280_temperature;BME280_humidity;BME280_pressure;Samples;Min_cycle;Max_cycle;Signal;HPM_P1;HPM_P2
2021/03/24 00:01:17;;;;;;;20.45;10.57;;;179.20;2048.00;;;;;;5049616;28;20467;-64
2021/03/24 00:03:43;;;;;;;23.30;10.75;;;154.50;2048.00;;;;;;5054206;28;20168;-64
2021/03/24 00:06:10;;;;;;;18.83;10.60;;;154.50;2048.00;;;;;;5053525;28;20032;-64
2021/03/24 00:08:35;;;;;;;22.77;11.43;;;154.50;2048.00;;;;;;5053360;28;20024;-64
2021/03/24 00:11:02;;;;;;;19.75;10.73;;;154.40;2073.60;;;;;;5053403;28;20029;-64
2021/03/24 00:13:27;;;;;;;20.17;10.55;;;154.30;2099.20;;;;;;5053347;28;20510;-63
2021/03/24 00:15:53;;;;;;;17.65;10.82;;;154.30;2099.20;;;;;;5035187;28;20037;-63
2021/03/24 00:18:19;;;;;;;21.30;11.68;;;154.30;2099.20;;;;;;5053371;28;20131;-63
2021/03/24 00:20:46;;;;;;;17.02;11.13;;;154.30;2124.80;;;;;;5052886;28;20017;-63
2021/03/24 00:23:12;;;;;;;18.25;10.55;;;154.30;2099.20;;;;;;5052337;28;20024;-63
2021/03/24 00:25:39;;;;;;;20.92;11.88;;;154.40;2124.80;;;;;;5052833;28;20021;-63
2021/03/24 00:28:06;;;;;;;19.45;10.73;;;154.20;2150.40;;;;;;5053281;28;20061;-64
2021/03/24 00:30:36;;;;;;;17.40;11.52;;;154.10;2176.00;;;;;;5052501;28;20036;-64
2021/03/24 00:33:02;;;;;;;17.10;10.60;;;154.10;2150.40;;;;;;5053231;28;20555;-63
2021/03/24 00:35:28;;;;;;;19.10;12.02;;;154.30;2124.80;;;;;;5052845;28;20024;-64
2021/03/24 00:37:54;;;;;;;19.80;11.13;;;154.20;2150.40;;;;;;5053011;28;20360;-62
2021/03/24 00:40:28;;;;;;;18.95;12.25;;;154.20;2150.40;;;;;;5052839;28;20045;-63
2021/03/24 00:42:54;;;;;;;22.05;12.30;;;154.10;2176.00;;;;;;5052490;28;20033;-62
2021/03/24 00:45:20;;;;;;;23.65;10.80;;;154.00;2176.00;;;;;;5052642;28;20028;-62
2021/03/24 00:47:46;;;;;;;20.00;11.50;;;154.00;2201.60;;;;;;5052561;28;20029;-62
2021/03/24 00:50:15;;;;;;;18.08;11.35;;;154.00;2201.60;;;;;;5052239;28;20060;-62
2021/03/24 00:52:41;;;;;;;17.77;10.70;;;154.00;2227.20;;;;;;5052757;28;20033;-62
2021/03/24 00:55:08;;;;;;;17.60;11.85;;;154.00;2227.20;;;;;;5052677;28;20045;-62
2021/03/24 00:57:33;;;;;;;16.35;10.52;;;154.10;2201.60;;;;;;5052519;28;20071;-62
2021/03/24 00:59:59;;;;;;;18.08;11.35;;;153.90;2227.20;;;;;;5052315;28;20041;-62
2021/03/24 01:02:25;;;;;;;19.88;11.13;;;154.00;2227.20;;;;;;5052286;28;20021;-63
2021/03/24 01:04:51;;;;;;;19.75;11.32;;;154.10;2201.60;;;;;;5052041;28;20494;-63
2021/03/24 01:07:17;;;;;;;14.93;9.85;;;154.30;2176.00;;;;;;5034520;28;20502;-62
2021/03/24 01:09:43;;;;;;;20.95;12.70;;;154.10;2201.60;;;;;;5052401;28;20048;-63
2021/03/24 01:12:09;;;;;;;18.10;10.40;;;154.10;2227.20;;;;;;5052255;28;20040;-65
2021/03/24 01:14:35;;;;;;;19.90;11.18;;;154.10;2201.60;;;;;;5051695;28;20033;-62
2021/03/24 01:17:01;;;;;;;16.30;10.80;;;154.00;2227.20;;;;;;5051741;28;20074;-62
2021/03/24 01:19:27;;;;;;;17.48;10.35;;;154.00;2227.20;;;;;;5051764;28;20029;-63
2021/03/24 01:21:52;;;;;;;17.10;10.57;;;154.00;2227.20;;;;;;5052162;28;20029;-62
2021/03/24 01:24:18;;;;;;;17.90;10.10;;;154.20;2201.60;;;;;;5051952;28;20055;-63
2021/03/24 01:26:44;;;;;;;16.70;10.23;;;154.00;2227.20;;;;;;5051976;28;20148;-62
2021/03/24 01:29:09;;;;;;;17.75;10.90;;;153.90;2227.20;;;;;;5052690;28;20025;-62
2021/03/24 01:31:35;;;;;;;18.73;9.98;;;153.90;2252.80;;;;;;5051530;28;20065;-62
2021/03/24 01:34:01;;;;;;;20.30;11.00;;;153.90;2227.20;;;;;;5052106;28;20383;-62
2021/03/24 01:36:28;;;;;;;17.50;10.43;;;154.00;2227.20;;;;;;5051776;28;20052;-63
2021/03/24 01:38:54;;;;;;;16.55;10.55;;;154.10;2227.20;;;;;;5052308;28;20020;-66
2021/03/24 01:41:23;;;;;;;20.80;12.07;;;154.00;2227.20;;;;;;5051409;28;20088;-62
2021/03/24 01:43:49;;;;;;;19.05;10.55;;;154.10;2227.20;;;;;;5051782;28;20119;-62
2021/03/24 01:46:21;;;;;;;15.50;10.55;;;154.00;2252.80;;;;;;5051745;28;20107;-62
2021/03/24 01:49:02;;;;;;;17.25;10.15;;;154.10;2252.80;;;;;;5051353;28;20367;-62
2021/03/24 01:51:44;;;;;;;16.33;9.98;;;154.10;2252.80;;;;;;5051887;28;20101;-62
2021/03/24 01:54:13;;;;;;;17.42;12.02;;;154.20;2252.80;;;;;;5051470;28;20025;-62
2021/03/24 01:56:41;;;;;;;19.88;12.45;;;154.30;2252.80;;;;;;5054773;28;20028;-62
2021/03/24 01:59:08;;;;;;;18.25;12.52;;;154.00;2252.80;;;;;;5055586;28;20395;-63
2021/03/24 02:01:34;;;;;;;20.38;12.80;;;154.00;2252.80;;;;;;5055751;28;20033;-62
2021/03/24 02:04:00;;;;;;;17.95;12.05;;;154.20;2252.80;;;;;;5055904;28;20029;-62
2021/03/24 02:06:53;;;;;;;16.95;11.85;;;154.00;2252.80;;;;;;5055410;28;20033;-65
2021/03/24 02:09:32;;;;;;;16.73;12.07;;;153.80;2252.80;;;;;;4974207;28;20109;-62
2021/03/24 02:12:16;;;;;;;;;;;128.90;2252.80;;;;;;4974948;28;20047;-62
2021/03/24 02:14:53;;;;;;;19.83;12.48;;;153.60;2252.80;;;;;;4974627;28;20288;-64
2021/03/24 02:17:23;;;;;;;18.88;13.13;;;153.60;2252.80;;;;;;4974716;28;20587;-68
2021/03/24 02:20:17;;;;;;;17.77;13.07;;;153.60;2252.80;;;;;;4974395;28;20030;-63
2021/03/24 02:22:47;;;;;;;21.15;14.52;;;153.70;2252.80;;;;;;4974895;28;20038;-62
2021/03/24 02:25:30;;;;;;;20.65;14.10;;;153.70;2252.80;;;;;;4974391;28;20023;-63
2021/03/24 02:27:59;;;;;;;21.48;15.13;;;128.90;2252.80;;;;;;4974122;28;20143;-63
2021/03/24 02:30:34;;;;;;;19.95;13.55;;;153.60;2252.80;;;;;;4974153;28;20041;-63
2021/03/24 02:33:13;;;;;;;20.02;13.70;;;153.70;2252.80;;;;;;4973934;28;20041;-62
2021/03/24 02:35:47;;;;;;;19.33;13.07;;;153.90;2252.80;;;;;;4974460;28;20026;-63
2021/03/24 02:38:15;;;;;;;19.98;14.65;;;153.80;2252.80;;;;;;4973842;28;20035;-63
2021/03/24 02:40:43;;;;;;;18.95;13.88;;;153.80;2252.80;;;;;;4974310;28;20045;-63
2021/03/24 02:43:11;;;;;;;19.42;13.32;;;153.90;2252.80;;;;;;4973645;28;20031;-62
2021/03/24 02:45:40;;;;;;;23.95;14.75;;;153.90;2252.80;;;;;;4986982;28;20467;-63
2021/03/24 02:48:20;;;;;;;21.75;13.52;;;153.90;2252.80;;;;;;5053057;28;20025;-63
2021/03/24 02:50:47;;;;;;;15.95;12.43;;;153.80;2252.80;;;;;;5054691;28;20463;-62
2021/03/24 02:53:14;;;;;;;18.90;12.55;;;153.70;2252.80;;;;;;5055009;28;20025;-63
2021/03/24 02:55:42;;;;;;;17.27;13.52;;;153.70;2252.80;;;;;;5054496;28;20056;-66
2021/03/24 02:58:11;;;;;;;17.98;12.18;;;153.70;2252.80;;;;;;5054462;28;20487;-63
2021/03/24 03:00:37;;;;;;;17.77;12.55;;;153.80;2252.80;;;;;;5054997;28;20438;-65
2021/03/24 03:03:12;;;;;;;17.27;11.85;;;153.70;2252.80;;;;;;5054976;28;20068;-66
2021/03/24 03:05:40;;;;;;;17.15;11.90;;;153.60;2252.80;;;;;;5054694;28;20100;-62
2021/03/24 03:08:15;;;;;;;19.15;11.82;;;153.70;2252.80;;;;;;5054755;28;20051;-65
2021/03/24 03:11:09;;;;;;;18.95;11.90;;;153.70;2252.80;;;;;;5054151;28;20112;-63
2021/03/24 03:13:46;;;;;;;16.27;11.98;;;153.70;2252.80;;;;;;5054793;28;20041;-63
2021/03/24 03:16:21;;;;;;;16.95;12.05;;;153.70;2252.80;;;;;;5054637;28;20025;-63
2021/03/24 03:18:55;;;;;;;18.15;12.27;;;128.90;2252.80;;;;;;5054967;28;20025;-62
2021/03/24 03:21:33;;;;;;;15.95;11.30;;;153.70;2252.80;;;;;;5054342;28;20471;-62
2021/03/24 03:24:03;;;;;;;13.93;10.65;;;153.70;2252.80;;;;;;5053644;28;20043;-62
2021/03/24 03:26:31;;;;;;;15.20;10.45;;;153.80;2252.80;;;;;;5054257;28;20035;-63
2021/03/24 03:29:16;;;;;;;17.17;11.07;;;153.80;2252.80;;;;;;5054396;28;20021;-64
2021/03/24 03:31:47;;;;;;;16.65;11.02;;;153.90;2252.80;;;;;;5052605;28;20029;-63
2021/03/24 03:34:15;;;;;;;16.92;11.80;;;153.90;2252.80;;;;;;5050910;28;20025;-62
2021/03/24 03:36:44;;;;;;;18.70;11.07;;;153.80;2252.80;;;;;;5054020;28;20025;-63
2021/03/24 03:39:14;;;;;;;16.63;10.52;;;153.80;2252.80;;;;;;5053737;28;20100;-62
2021/03/24 03:41:40;;;;;;;17.08;10.73;;;153.80;2252.80;;;;;;5053891;28;20514;-62
2021/03/24 03:44:07;;;;;;;16.40;11.15;;;153.70;2252.80;;;;;;5053628;28;20041;-62
2021/03/24 03:46:38;;;;;;;15.32;11.32;;;153.70;2252.80;;;;;;5053782;28;20239;-62
2021/03/24 03:49:04;;;;;;;15.60;11.68;;;153.70;2252.80;;;;;;5053929;28;20032;-61
2021/03/24 03:52:10;;;;;;;21.13;12.43;;;153.70;2252.80;;;;;;5053401;28;20044;-62
2021/03/24 03:54:47;;;;;;;18.75;11.45;;;153.80;2252.80;;;;;;5053918;28;20379;-61
2021/03/24 03:57:15;;;;;;;15.88;10.93;;;153.80;2252.80;;;;;;5053716;28;20024;-63
2021/03/24 03:59:51;;;;;;;21.70;13.13;;;153.90;2252.80;;;;;;5053446;28;20036;-62
2021/03/24 04:02:21;;;;;;;19.30;12.48;;;154.00;2252.80;;;;;;5053334;28;20021;-67
2021/03/24 04:04:53;;;;;;;18.15;12.95;;;154.00;2252.80;;;;;;5053485;28;20055;-61
2021/03/24 04:07:51;;;;;;;18.75;12.45;;;153.70;2252.80;;;;;;5053245;28;20074;-65
2021/03/24 04:10:17;;;;;;;22.10;13.27;;;153.90;2252.80;;;;;;5048158;28;20108;-62
2021/03/24 04:12:44;;;;;;;20.02;13.35;;;153.70;2252.80;;;;;;5053373;28;20040;-62
2021/03/24 04:15:19;;;;;;;23.15;12.63;;;153.80;2252.80;;;;;;5053389;28;20479;-65
2021/03/24 04:17:54;;;;;;;21.10;13.52;;;153.80;2252.80;;;;;;5052975;28;20036;-62
2021/03/24 04:20:23;;;;;;;17.60;12.27;;;153.60;2252.80;;;;;;5053045;28;20589;-62
2021/03/24 04:22:51;;;;;;;18.83;12.32;;;153.70;2252.80;;;;;;5053485;28;20363;-63
2021/03/24 04:25:24;;;;;;;19.35;12.90;;;153.70;2252.80;;;;;;5052935;28;20033;-64
2021/03/24 04:27:53;;;;;;;19.98;12.48;;;153.70;2252.80;;;;;;5053009;28;20075;-62
2021/03/24 04:30:27;;;;;;;23.73;13.77;;;128.90;2252.80;;;;;;5052985;28;20025;-62
2021/03/24 04:32:53;;;;;;;18.15;13.05;;;128.90;2252.80;;;;;;5052828;28;20082;-62
2021/03/24 04:35:21;;;;;;;18.77;12.98;;;153.70;2252.80;;;;;;5053027;28;20447;-61
2021/03/24 04:37:51;;;;;;;20.37;13.37;;;153.60;2252.80;;;;;;5052866;28;20117;-62
2021/03/24 04:40:28;;;;;;;22.45;12.48;;;128.90;2252.80;;;;;;5052797;28;20266;-62
2021/03/24 04:43:02;;;;;;;17.48;12.75;;;128.90;2252.80;;;;;;5052616;28;20032;-62
2021/03/24 04:45:40;;;;;;;19.42;12.35;;;128.80;2252.80;;;;;;5052631;28;20566;-62
2021/03/24 04:48:13;;;;;;;19.23;11.70;;;128.80;2252.80;;;;;;5052738;28;20017;-63
2021/03/24 04:50:45;;;;;;;20.52;12.73;;;128.90;2252.80;;;;;;5052207;28;20025;-63
2021/03/24 04:53:15;;;;;;;19.15;13.32;;;128.70;2252.80;;;;;;5052542;28;20036;-64
2021/03/24 04:55:42;;;;;;;20.65;12.60;;;128.70;2252.80;;;;;;5052591;28;20025;-63
2021/03/24 04:58:17;;;;;;;17.38;12.45;;;128.80;2252.80;;;;;;5051577;28;20029;-64
2021/03/24 05:00:53;;;;;;;18.15;11.60;;;128.70;2252.80;;;;;;5052450;28;20104;-64
2021/03/24 05:03:24;;;;;;;19.20;12.70;;;128.60;2252.80;;;;;;5041566;28;20025;-64
2021/03/24 05:05:57;;;;;;;18.55;11.55;;;128.80;2252.80;;;;;;5053326;28;20064;-63
2021/03/24 05:08:33;;;;;;;20.33;12.73;;;128.60;2252.80;;;;;;5051940;28;20025;-63
2021/03/24 05:11:05;;;;;;;20.75;11.75;;;128.70;2252.80;;;;;;5052215;28;20120;-63
2021/03/24 05:13:39;;;;;;;18.85;11.98;;;128.80;2252.80;;;;;;5052338;28;20029;-62
2021/03/24 05:16:15;;;;;;;17.02;11.68;;;153.60;2252.80;;;;;;5052420;28;20021;-63
2021/03/24 05:18:41;;;;;;;17.35;12.38;;;153.60;2252.80;;;;;;5051937;28;20017;-62
2021/03/24 05:21:33;;;;;;;20.73;12.15;;;153.60;2252.80;;;;;;5052202;28;20143;-63
2021/03/24 05:24:00;;;;;;;16.02;11.00;;;153.60;2252.80;;;;;;5051001;28;20130;-62
2021/03/24 05:26:37;;;;;;;21.45;11.68;;;128.90;2252.80;;;;;;5033811;28;20025;-62
2021/03/24 05:29:09;;;;;;;18.00;11.88;;;153.70;2252.80;;;;;;5052087;28;20020;-63
2021/03/24 05:31:40;;;;;;;19.02;11.55;;;128.90;2252.80;;;;;;5050885;28;20159;-63
2021/03/24 05:34:20;;;;;;;18.48;12.27;;;153.60;2252.80;;;;;;5052182;28;20411;-62
2021/03/24 05:36:48;;;;;;;17.05;11.90;;;153.60;2252.80;;;;;;5051829;28;20020;-62
2021/03/24 05:39:28;;;;;;;18.08;12.27;;;153.80;2252.80;;;;;;5051872;28;20021;-62
2021/03/24 05:41:57;;;;;;;22.30;12.38;;;153.80;2252.80;;;;;;5051432;28;20100;-62
2021/03/24 05:44:47;;;;;;;16.85;10.93;;;154.00;2252.80;;;;;;5051526;28;20052;-62
2021/03/24 05:47:37;;;;;;;17.30;12.38;;;153.90;2252.80;;;;;;5038725;28;20021;-63
2021/03/24 05:50:15;;;;;;;17.15;11.73;;;154.00;2252.80;;;;;;5033617;28;20044;-63
2021/03/24 05:53:13;;;;;;;19.23;12.75;;;154.00;2252.80;;;;;;5051765;28;20099;-63
2021/03/24 05:55:49;;;;;;;21.00;12.40;;;153.90;2252.80;;;;;;5051856;28;20510;-65
2021/03/24 05:58:50;;;;;;;22.08;14.30;;;153.90;2252.80;;;;;;5051882;28;20178;-62
2021/03/24 06:01:29;;;;;;;18.00;12.48;;;154.10;2252.80;;;;;;4951193;29;20039;-63
2021/03/24 06:04:11;;;;;;;17.38;12.27;;;154.10;2252.80;;;;;;4951572;28;20413;-70
2021/03/24 06:07:02;;;;;;;20.13;13.10;;;154.00;2252.80;;;;;;4951405;29;20039;-67
2021/03/24 06:10:10;;;;;;;19.98;12.73;;;154.00;2252.80;;;;;;4944759;29;20475;-67
2021/03/24 06:13:09;;;;;;;20.73;12.85;;;153.90;2252.80;;;;;;4935899;29;20114;-67
2021/03/24 06:15:58;;;;;;;18.00;12.82;;;153.80;2252.80;;;;;;4933756;29;20581;-67
2021/03/24 06:19:01;;;;;;;20.55;13.32;;;153.80;2252.80;;;;;;4932481;29;20581;-68
2021/03/24 06:21:59;;;;;;;18.50;12.50;;;153.90;2252.80;;;;;;4942320;29;20048;-68
2021/03/24 06:24:59;;;;;;;21.25;12.27;;;153.90;2252.80;;;;;;4934425;29;20094;-68
2021/03/24 06:27:33;;;;;;;22.17;13.63;;;154.20;2252.80;;;;;;4939058;29;20032;-68
2021/03/24 06:30:27;;;;;;;23.38;13.70;;;154.00;2252.80;;;;;;4943011;29;20107;-67
2021/03/24 06:33:11;;;;;;;20.23;14.57;;;153.80;2252.80;;;;;;4856238;29;20060;-67
2021/03/24 06:35:40;;;;;;;23.80;14.85;;;153.70;2252.80;;;;;;4851098;29;20032;-67
2021/03/24 06:38:27;;;;;;;24.92;15.10;;;153.90;2252.80;;;;;;4877211;29;20119;-68
2021/03/24 06:41:13;;;;;;;34.35;21.27;;;154.00;2252.80;;;;;;4931387;29;20020;-68
2021/03/24 06:44:05;;;;;;;29.90;21.60;;;153.80;2252.80;;;;;;4927004;29;20150;-67
2021/03/24 06:47:09;;;;;;;24.92;15.90;;;153.80;2252.80;;;;;;4935046;29;20031;-68
2021/03/24 06:49:49;;;;;;;21.55;14.27;;;153.90;2252.80;;;;;;4915351;29;20102;-68
2021/03/24 06:52:41;;;;;;;22.08;14.35;;;154.00;2252.80;;;;;;4913818;29;20056;-67
2021/03/24 06:55:24;;;;;;;20.80;13.55;;;153.90;2252.80;;;;;;4911804;29;20021;-68
2021/03/24 06:57:59;;;;;;;20.45;13.98;;;154.10;2252.80;;;;;;4913936;29;20040;-68
2021/03/24 07:01:04;;;;;;;23.08;13.85;;;154.00;2252.80;;;;;;4910784;29;20066;-68
2021/03/24 07:04:10;;;;;;;23.58;15.00;;;154.10;2252.80;;;;;;4914562;29;20400;-67
2021/03/24 07:06:54;;;;;;;24.63;13.80;;;154.00;2252.80;;;;;;4913174;29;20032;-68
2021/03/24 07:09:36;;;;;;;22.45;14.13;;;154.00;2252.80;;;;;;4924112;29;20071;-68
2021/03/24 07:12:40;;;;;;;23.42;14.50;;;154.00;2252.80;;;;;;4953682;28;20059;-67
2021/03/24 07:15:26;;;;;;;25.30;15.70;;;154.20;2252.80;;;;;;4896378;29;20032;-67
2021/03/24 07:18:20;;;;;;;25.40;16.55;;;179.20;2252.80;;;;;;4882622;29;20041;-68
2021/03/24 07:20:55;;;;;;;22.58;14.88;;;179.40;2252.80;;;;;;4883572;29;20029;-68
2021/03/24 07:23:33;;;;;;;25.25;15.07;;;179.20;2252.80;;;;;;4917500;29;20130;-67
2021/03/24 07:26:22;;;;;;;26.65;15.90;;;154.50;2252.80;;;;;;4953495;29;20024;-67
2021/03/24 07:29:08;;;;;;;24.20;15.05;;;179.40;2252.80;;;;;;4953867;29;20024;-67
2021/03/24 07:31:55;;;;;;;21.27;13.52;;;179.20;2252.80;;;;;;4953186;28;20075;-68
2021/03/24 07:34:48;;;;;;;23.85;14.82;;;154.40;2252.80;;;;;;4953761;28;20127;-66
2021/03/24 07:37:28;;;;;;;24.63;15.65;;;154.30;2252.80;;;;;;4953943;28;20089;-64
2021/03/24 07:40:26;;;;;;;23.42;13.93;;;179.20;2252.80;;;;;;4954099;28;20027;-66
2021/03/24 07:43:09;;;;;;;18.88;13.00;;;179.20;2252.80;;;;;;4913927;28;20039;-65
2021/03/24 07:45:59;;;;;;;19.00;12.52;;;179.30;2252.80;;;;;;4954137;28;20046;-66
2021/03/24 07:48:49;;;;;;;21.27;13.50;;;179.40;2252.80;;;;;;4952971;28;20042;-66
2021/03/24 07:51:18;;;;;;;20.10;12.95;;;179.30;2252.80;;;;;;5047905;28;20036;-67
2021/03/24 07:53:49;;;;;;;21.27;13.90;;;179.40;2252.80;;;;;;5052847;28;20017;-65
2021/03/24 07:56:35;;;;;;;24.15;17.42;;;179.80;2252.80;;;;;;5035500;28;20075;-68
2021/03/24 07:59:35;;;;;;;24.60;17.05;;;180.00;2252.80;;;;;;5053714;28;20082;-67
2021/03/24 08:02:19;;;;;;;23.27;15.50;;;180.00;2252.80;;;;;;5053492;28;20033;-67
2021/03/24 08:04:57;;;;;;;22.10;14.20;;;179.60;2252.80;;;;;;5042709;28;20021;-66
2021/03/24 08:07:28;;;;;;;23.50;15.60;;;179.30;2252.80;;;;;;5053537;28;20071;-61
2021/03/24 08:10:18;;;;;;;21.75;14.35;;;154.40;2252.80;;;;;;5053241;28;20025;-61
2021/03/24 08:13:29;;;;;;;23.17;14.85;;;179.20;2252.80;;;;;;5053568;28;20463;-61
2021/03/24 08:15:58;;;;;;;26.67;15.52;;;179.20;2252.80;;;;;;4972363;28;20035;-63
2021/03/24 08:18:45;;;;;;;25.15;15.35;;;179.40;2252.80;;;;;;4972575;28;20035;-61
2021/03/24 08:21:32;;;;;;;22.88;13.48;;;179.50;2252.80;;;;;;4972141;28;20043;-60
2021/03/24 08:24:23;;;;;;;24.27;15.15;;;179.60;2252.80;;;;;;4971004;28;20150;-60
2021/03/24 08:27:03;;;;;;;19.10;12.93;;;179.70;2252.80;;;;;;4972732;28;20034;-60
2021/03/24 08:30:01;;;;;;;18.55;13.15;;;179.60;2252.80;;;;;;4972332;28;20052;-61
2021/03/24 08:32:51;;;;;;;20.85;14.02;;;179.80;2252.80;;;;;;4972200;28;20436;-62
2021/03/24 08:35:52;;;;;;;19.55;15.52;;;179.80;2252.80;;;;;;4972147;28;20035;-61
2021/03/24 08:38:38;;;;;;;21.77;13.57;;;180.00;2252.80;;;;;;4961683;28;20031;-59
2021/03/24 08:41:41;;;;;;;23.88;21.10;;;204.90;2252.80;;;;;;4971845;28;20039;-60
2021/03/24 08:44:30;;;;;;;66.07;60.33;;;180.10;2252.80;;;;;;4961578;28;20215;-60
2021/03/24 08:47:22;;;;;;;19.85;13.52;;;205.10;2252.80;;;;;;4962453;28;20492;-61
2021/03/24 08:49:52;;;;;;;21.60;14.05;;;205.10;2252.80;;;;;;5008166;28;20025;-60
2021/03/24 08:52:27;;;;;;;19.77;13.63;;;205.70;2176.00;;;;;;5053219;28;20028;-61
2021/03/24 08:55:25;;;;;;;19.38;14.18;;;230.50;2073.60;;;;;;5052854;28;20017;-61
2021/03/24 08:58:12;;;;;;;22.20;15.07;;;230.50;2022.40;;;;;;4971554;28;20039;-59
2021/03/24 09:01:01;;;;;;;18.88;12.48;;;230.90;2022.40;;;;;;4967111;28;20476;-61
2021/03/24 09:03:52;;;;;;;15.40;12.27;;;231.00;1920.00;;;;;;4983189;28;20137;-59
2021/03/24 09:06:48;;;;;;;17.58;10.80;;;230.90;1894.40;;;;;;4971281;28;20520;-61
2021/03/24 09:09:29;;;;;;;14.90;10.13;;;230.40;1894.40;;;;;;4963934;28;20042;-59
2021/03/24 09:12:01;;;;;;;15.65;10.68;;;205.60;1971.20;;;;;;4983042;28;20547;-60
2021/03/24 09:14:44;;;;;;;15.93;11.13;;;230.50;1945.60;;;;;;4971543;28;20034;-59
2021/03/24 09:17:24;;;;;;;20.42;11.25;;;230.60;1894.40;;;;;;4982879;28;20031;-61
2021/03/24 09:20:08;;;;;;;17.77;9.55;;;231.10;1894.40;;;;;;4971715;28;20034;-59
2021/03/24 09:22:40;;;;;;;18.30;11.10;;;231.00;1868.80;;;;;;4961302;28;20507;-59
2021/03/24 09:25:17;;;;;;;15.70;10.77;;;231.10;1868.80;;;;;;4979886;28;20026;-59
2021/03/24 09:28:20;;;;;;;15.60;9.70;;;231.10;1817.60;;;;;;4971489;28;20031;-61
2021/03/24 09:31:06;;;;;;;18.65;10.70;;;231.00;1868.80;;;;;;4971657;28;20030;-60
2021/03/24 09:33:58;;;;;;;14.35;10.00;;;231.20;1843.20;;;;;;4982730;28;20153;-59
2021/03/24 09:36:56;;;;;;;14.18;9.63;;;256.50;1766.40;;;;;;5009158;28;20044;-61
2021/03/24 09:39:25;;;;;;;12.30;9.65;;;;;;;;;;5051899;28;20104;-59
2021/03/24 09:41:54;;;;;;;16.95;10.57;;;;;;;;;;5052031;28;20021;-59
2021/03/24 09:44:34;;;;;;;16.65;10.68;;;231.10;1894.40;;;;;;5051837;28;20064;-60
2021/03/24 09:47:00;;;;;;;13.25;10.05;;;231.20;1868.80;;;;;;5034034;28;20045;-59
2021/03/24 09:49:32;;;;;;;14.27;10.65;;;231.10;1894.40;;;;;;5051650;28;20451;-60
2021/03/24 09:52:15;;;;;;;15.00;10.50;;;231.30;1894.40;;;;;;5051857;28;20386;-60
2021/03/24 09:55:22;;;;;;;20.77;10.20;;;256.40;1843.20;;;;;;5051686;28;20092;-60
2021/03/24 09:58:00;;;;;;;15.15;9.30;;;256.80;1766.40;;;;;;5051542;28;20463;-63
2021/03/24 10:00:28;;;;;;;14.35;9.25;;;256.10;1792.00;;;;;;5052390;28;20037;-61
2021/03/24 10:02:57;;;;;;;;;;;256.00;1792.00;;;;;;5053775;28;20086;-65
2021/03/24 10:05:35;;;;;;;12.00;8.57;;;256.30;1715.20;;;;;;5053374;28;19905;-61
2021/03/24 10:08:07;;;;;;;13.05;8.85;;;256.30;1715.20;;;;;;5052981;28;20035;-60
2021/03/24 10:10:36;;;;;;;24.08;9.60;;;230.90;1766.40;;;;;;5051801;28;20021;-60
2021/03/24 10:13:26;;;;;;;16.95;9.32;;;231.10;1792.00;;;;;;5052586;28;20029;-60
2021/03/24 10:16:07;;;;;;;12.55;9.05;;;231.20;1740.80;;;;;;5042110;28;20039;-61
2021/03/24 10:18:33;;;;;;;11.68;8.27;;;231.20;1715.20;;;;;;5056393;28;20021;-61
2021/03/24 10:21:16;;;;;;;13.45;8.07;;;231.20;1638.40;;;;;;5056063;28;20058;-61
2021/03/24 10:23:50;;;;;;;12.93;8.00;;;231.20;1664.00;;;;;;5056691;28;20028;-63
2021/03/24 10:26:40;;;;;;;13.60;7.70;;;256.00;1587.20;;;;;;5056178;28;20017;-61
2021/03/24 10:29:13;;;;;;;12.73;7.32;;;256.00;1587.20;;;;;;5056140;28;20024;-62
2021/03/24 10:31:42;;;;;;;9.45;7.03;;;256.30;1536.00;;;;;;5055760;28;20031;-62
2021/03/24 10:34:13;;;;;;;11.85;7.50;;;231.30;1561.60;;;;;;5056270;28;20470;-61
2021/03/24 10:37:06;;;;;;;10.80;7.28;;;256.10;1587.20;;;;;;5038479;28;20471;-64
2021/03/24 10:39:42;;;;;;;9.02;6.70;;;256.30;1587.20;;;;;;5056132;28;20472;-61
2021/03/24 10:42:28;;;;;;;8.52;7.20;;;231.10;1664.00;;;;;;5056020;28;20039;-64
2021/03/24 10:45:02;;;;;;;9.23;7.28;;;256.00;1587.20;;;;;;5055171;28;20052;-62
2021/03/24 10:47:37;;;;;;;12.75;6.70;;;256.60;1484.80;;;;;;5038418;28;20391;-61
2021/03/24 10:50:17;;;;;;;12.90;6.88;;;256.20;1484.80;;;;;;5056618;28;20090;-62
2021/03/24 10:53:09;;;;;;;9.85;7.00;;;256.20;1484.80;;;;;;5057103;28;20036;-63
2021/03/24 10:55:38;;;;;;;11.05;6.68;;;256.00;1510.40;;;;;;5055927;28;20029;-63
2021/03/24 10:58:25;;;;;;;9.95;6.18;;;256.10;1510.40;;;;;;5060122;28;20382;-62
2021/03/24 11:01:04;;;;;;;9.63;6.50;;;256.30;1484.80;;;;;;5048462;28;20025;-60
2021/03/24 11:03:41;;;;;;;11.90;6.80;;;256.40;1433.60;;;;;;5054431;28;20029;-62
2021/03/24 11:06:18;;;;;;;9.23;6.80;;;256.60;1433.60;;;;;;5036918;28;20485;-62
2021/03/24 11:09:02;;;;;;;10.30;6.90;;;256.80;1408.00;;;;;;5050298;28;20025;-61
2021/03/24 11:11:45;;;;;;;12.73;6.65;;;281.60;1459.20;;;;;;5054654;28;20500;-65
2021/03/24 11:14:28;;;;;;;8.80;6.13;;;281.80;1408.00;;;;;;5053596;28;20044;-64
2021/03/24 11:17:03;;;;;;;11.38;7.13;;;282.00;1408.00;;;;;;5054434;28;20428;-63
2021/03/24 11:19:34;;;;;;;10.20;6.75;;;256.80;1433.60;;;;;;5053019;28;20355;-62
2021/03/24 11:22:14;;;;;;;9.05;6.80;;;282.10;1408.00;;;;;;5050058;28;20379;-64
2021/03/24 11:25:02;;;;;;;8.65;6.57;;;282.20;1382.40;;;;;;5040650;28;20463;-64
2021/03/24 11:28:07;;;;;;;9.32;6.15;;;282.00;1382.40;;;;;;5060239;28;20055;-63
2021/03/24 11:30:47;;;;;;;12.52;7.78;;;282.50;1331.20;;;;;;5046542;28;20025;-63
2021/03/24 11:33:34;;;;;;;10.85;8.60;;;282.50;1433.60;;;;;;5038046;28;20484;-63
2021/03/24 11:36:08;;;;;;;13.00;9.27;;;307.50;1510.40;;;;;;5052176;28;20036;-62
2021/03/24 11:38:39;;;;;;;14.45;10.68;;;282.40;1587.20;;;;;;5054091;28;20105;-63
2021/03/24 11:41:33;;;;;;;12.15;10.13;;;282.40;1561.60;;;;;;5053817;28;20096;-64
2021/03/24 11:44:10;;;;;;;11.52;10.05;;;282.20;1587.20;;;;;;5050179;28;20037;-62
2021/03/24 11:46:42;;;;;;;12.15;9.48;;;282.10;1587.20;;;;;;5043042;28;20515;-62
2021/03/24 11:49:36;;;;;;;14.73;9.75;;;282.10;1561.60;;;;;;5052127;28;20017;-63
2021/03/24 11:52:39;;;;;;;12.50;9.82;;;281.80;1536.00;;;;;;5035354;28;20056;-61
2021/03/24 11:55:25;;;;;;;12.68;9.27;;;256.80;1536.00;;;;;;5037897;28;20033;-62
2021/03/24 11:58:25;;;;;;;15.50;10.88;;;256.90;1587.20;;;;;;5048575;28;20037;-61
2021/03/24 12:01:19;;;;;;;14.27;10.68;;;256.80;1638.40;;;;;;5053492;28;20025;-62
2021/03/24 12:04:07;;;;;;;16.20;11.13;;;256.20;1715.20;;;;;;5047745;28;20029;-62
2021/03/24 12:06:46;;;;;;;15.98;11.02;;;256.70;1612.80;;;;;;5040433;28;20033;-62
2021/03/24 12:09:35;;;;;;;14.10;10.23;;;256.50;1664.00;;;;;;5045748;28;20033;-63
2021/03/24 12:12:10;;;;;;;14.15;9.88;;;256.90;1638.40;;;;;;5052914;28;20064;-63
2021/03/24 12:14:37;;;;;;;15.25;11.02;;;256.90;1638.40;;;;;;5048050;28;20364;-62
2021/03/24 12:17:22;;;;;;;14.10;10.23;;;282.00;1612.80;;;;;;5050698;28;20033;-61
2021/03/24 12:19:48;;;;;;;13.52;10.57;;;282.50;1536.00;;;;;;5040377;28;20051;-57
2021/03/24 12:22:20;;;;;;;11.48;9.00;;;281.70;1587.20;;;;;;5043076;28;20060;-58
2021/03/24 12:24:50;;;;;;;17.15;9.95;;;282.30;1536.00;;;;;;5044264;28;20092;-60
2021/03/24 12:27:19;;;;;;;15.75;8.90;;;282.40;1536.00;;;;;;5014388;28;20040;-59
2021/03/24 12:30:05;;;;;;;13.75;9.32;;;282.10;1561.60;;;;;;5033218;28;20026;-59
2021/03/24 12:32:37;;;;;;;16.20;9.77;;;282.00;1561.60;;;;;;5033867;28;20072;-59
2021/03/24 12:35:26;;;;;;;16.05;9.25;;;256.80;1587.20;;;;;;5033250;28;20469;-59
2021/03/24 12:38:03;;;;;;;13.98;10.25;;;256.80;1612.80;;;;;;5032434;28;20029;-59
2021/03/24 12:40:29;;;;;;;13.75;9.93;;;281.90;1587.20;;;;;;5035791;28;20033;-60
2021/03/24 12:43:18;;;;;;;14.93;9.90;;;282.20;1536.00;;;;;;5050414;28;20064;-60
2021/03/24 12:45:44;;;;;;;16.05;9.70;;;282.00;1561.60;;;;;;5052381;28;20044;-59
2021/03/24 12:48:24;;;;;;;14.63;10.15;;;281.70;1587.20;;;;;;5051848;28;20041;-59
2021/03/24 12:50:57;;;;;;;16.17;10.40;;;281.80;1587.20;;;;;;5052461;28;20532;-60
2021/03/24 12:53:34;;;;;;;15.32;10.70;;;281.90;1561.60;;;;;;5035016;28;20124;-59
2021/03/24 12:56:12;;;;;;;13.93;9.63;;;281.70;1612.80;;;;;;5049821;28;20131;-59